sensor_id;sensor_type;location;lat;lon;timestamp;P1;durP1;ratioP1;P2;durP2;ratioP2
18776;SDS011;9517;51.174;4.160;2023-02-01T00:00:38;38.03;;;8.93;;
18776;SDS011;9517;51.174;4.160;2023-02-01T00:03:05;40.63;;;9.23;;
18776;SDS011;9517;51.174;4.160;2023-02-01T00:05:33;24.90;;;7.97;;
18776;SDS011;9517;51.174;4.160;2023-02-01T00:08:00;36.57;;;8.80;;
18776;SDS011;9517;51.174;4.160;2023-02-01T00:10:27;28.13;;;8.70;;
18776;SDS011;9517;51.174;4.160;2023-02-01T00:12:54;40.80;;;8.93;;
18776;SDS011;9517;51.174;4.160;2023-02-01T00:15:22;42.00;;;8.80;;
18776;SDS011;9517;51.174;4.160;2023-02-01T00:17:53;32.57;;;8.20;;
18776;SDS011;9517;51.174;4.160;2023-02-01T00:20:21;36.90;;;8.43;;
18776;SDS011;9517;51.174;4.160;2023-02-01T00:22:48;30.93;;;8.20;;
18776;SDS011;9517;51.174;4.160;2023-02-01T00:25:15;34.57;;;8.67;;
18776;SDS011;9517;51.174;4.160;2023-02-01T00:27:42;30.10;;;8.23;;
18776;SDS011;9517;51.174;4.160;2023-02-01T00:30:11;35.10;;;9.30;;
18776;SDS011;9517;51.174;4.160;2023-02-01T00:32:39;40.60;;;9.90;;
18776;SDS011;9517;51.174;4.160;2023-02-01T00:35:08;36.50;;;9.20;;
18776;SDS011;9517;51.174;4.160;2023-02-01T00:37:35;41.40;;;10.53;;
18776;SDS011;9517;51.174;4.160;2023-02-01T00:40:02;38.67;;;9.40;;
18776;SDS011;9517;51.174;4.160;2023-02-01T00:42:30;35.03;;;10.40;;
18776;SDS011;9517;51.174;4.160;2023-02-01T00:44:57;41.93;;;9.97;;
18776;SDS011;9517;51.174;4.160;2023-02-01T00:47:24;40.33;;;9.97;;
18776;SDS011;9517;51.174;4.160;2023-02-01T00:49:52;36.33;;;9.83;;
18776;SDS011;9517;51.174;4.160;2023-02-01T00:52:23;42.40;;;10.03;;
18776;SDS011;9517;51.174;4.160;2023-02-01T00:54:50;31.87;;;9.43;;
18776;SDS011;9517;51.174;4.160;2023-02-01T00:57:18;41.23;;;11.07;;
18776;SDS011;9517;51.174;4.160;2023-02-01T00:59:45;39.53;;;10.97;;
18776;SDS011;9517;51.174;4.160;2023-02-01T01:02:12;39.43;;;10.83;;
18776;SDS011;9517;51.174;4.160;2023-02-01T01:04:39;41.40;;;11.37;;
18776;SDS011;9517;51.174;4.160;2023-02-01T01:07:06;31.03;;;9.07;;
18776;SDS011;9517;51.174;4.160;2023-02-01T01:09:35;34.93;;;9.77;;
18776;SDS011;9517;51.174;4.160;2023-02-01T01:12:02;29.77;;;7.83;;
18776;SDS011;9517;51.174;4.160;2023-02-01T01:14:31;31.27;;;6.07;;
18776;SDS011;9517;51.174;4.160;2023-02-01T01:16:58;26.07;;;5.60;;
18776;SDS011;9517;51.174;4.160;2023-02-01T01:19:25;30.53;;;5.70;;
18776;SDS011;9517;51.174;4.160;2023-02-01T01:21:53;32.13;;;5.13;;
18776;SDS011;9517;51.174;4.160;2023-02-01T01:24:20;25.00;;;4.87;;
18776;SDS011;9517;51.174;4.160;2023-02-01T01:26:48;28.80;;;5.27;;
18776;SDS011;9517;51.174;4.160;2023-02-01T01:29:15;31.13;;;5.63;;
18776;SDS011;9517;51.174;4.160;2023-02-01T01:31:42;26.40;;;4.50;;
18776;SDS011;9517;51.174;4.160;2023-02-01T01:34:09;24.97;;;4.97;;
18776;SDS011;9517;51.174;4.160;2023-02-01T01:36:36;22.83;;;4.40;;
18776;SDS011;9517;51.174;4.160;2023-02-01T01:39:03;27.77;;;4.93;;
18776;SDS011;9517;51.174;4.160;2023-02-01T01:41:31;31.93;;;7.10;;
18776;SDS011;9517;51.174;4.160;2023-02-01T01:44:00;33.30;;;5.70;;
18776;SDS011;9517;51.174;4.160;2023-02-01T01:46:30;23.33;;;5.03;;
18776;SDS011;9517;51.174;4.160;2023-02-01T01:49:02;36.20;;;6.33;;
18776;SDS011;9517;51.174;4.160;2023-02-01T01:51:35;34.90;;;8.77;;
18776;SDS011;9517;51.174;4.160;2023-02-01T01:54:10;43.07;;;8.27;;
18776;SDS011;9517;51.174;4.160;2023-02-01T01:56:42;36.67;;;9.27;;
18776;SDS011;9517;51.174;4.160;2023-02-01T01:59:13;40.30;;;8.73;;
18776;SDS011;9517;51.174;4.160;2023-02-01T02:01:41;32.63;;;9.30;;
18776;SDS011;9517;51.174;4.160;2023-02-01T02:04:08;36.07;;;8.53;;
18776;SDS011;9517;51.174;4.160;2023-02-01T02:06:40;39.83;;;8.60;;
18776;SDS011;9517;51.174;4.160;2023-02-01T02:09:13;33.37;;;7.10;;
18776;SDS011;9517;51.174;4.160;2023-02-01T02:11:40;24.60;;;5.63;;
18776;SDS011;9517;51.174;4.160;2023-02-01T02:14:08;37.37;;;6.97;;
18776;SDS011;9517;51.174;4.160;2023-02-01T02:19:45;30.87;;;6.20;;
18776;SDS011;9517;51.174;4.160;2023-02-01T02:22:48;33.23;;;6.27;;
18776;SDS011;9517;51.174;4.160;2023-02-01T02:28:48;45.93;;;9.00;;
18776;SDS011;9517;51.174;4.160;2023-02-01T02:31:54;32.10;;;8.30;;
18776;SDS011;9517;51.174;4.160;2023-02-01T02:34:38;38.80;;;8.60;;
18776;SDS011;9517;51.174;4.160;2023-02-01T02:37:09;31.97;;;7.37;;
18776;SDS011;9517;51.174;4.160;2023-02-01T02:39:47;33.73;;;7.20;;
18776;SDS011;9517;51.174;4.160;2023-02-01T02:42:21;40.30;;;7.30;;
18776;SDS011;9517;51.174;4.160;2023-02-01T02:45:12;37.83;;;7.00;;
18776;SDS011;9517;51.174;4.160;2023-02-01T02:48:02;33.80;;;6.70;;
18776;SDS011;9517;51.174;4.160;2023-02-01T02:50:41;25.60;;;6.17;;
18776;SDS011;9517;51.174;4.160;2023-02-01T02:53:29;32.13;;;5.60;;
18776;SDS011;9517;51.174;4.160;2023-02-01T02:56:17;27.73;;;6.17;;
18776;SDS011;9517;51.174;4.160;2023-02-01T02:59:04;31.60;;;5.50;;
18776;SDS011;9517;51.174;4.160;2023-02-01T03:01:50;25.33;;;5.00;;
18776;SDS011;9517;51.174;4.160;2023-02-01T03:04:36;29.67;;;5.53;;
18776;SDS011;9517;51.174;4.160;2023-02-01T03:07:13;29.27;;;5.80;;
18776;SDS011;9517;51.174;4.160;2023-02-01T03:10:01;28.40;;;5.00;;
18776;SDS011;9517;51.174;4.160;2023-02-01T03:12:31;26.23;;;5.23;;
18776;SDS011;9517;51.174;4.160;2023-02-01T03:15:22;28.37;;;4.73;;
18776;SDS011;9517;51.174;4.160;2023-02-01T03:17:56;37.30;;;5.97;;
18776;SDS011;9517;51.174;4.160;2023-02-01T03:20:27;31.70;;;5.10;;
18776;SDS011;9517;51.174;4.160;2023-02-01T03:22:59;33.07;;;5.63;;
18776;SDS011;9517;51.174;4.160;2023-02-01T03:25:27;26.73;;;6.13;;
18776;SDS011;9517;51.174;4.160;2023-02-01T03:27:57;29.80;;;4.80;;
18776;SDS011;9517;51.174;4.160;2023-02-01T03:30:28;35.43;;;5.43;;
18776;SDS011;9517;51.174;4.160;2023-02-01T03:32:58;25.07;;;4.47;;
18776;SDS011;9517;51.174;4.160;2023-02-01T03:35:30;25.30;;;4.90;;
18776;SDS011;9517;51.174;4.160;2023-02-01T03:38:07;27.17;;;5.10;;
18776;SDS011;9517;51.174;4.160;2023-02-01T03:40:39;26.10;;;5.40;;
18776;SDS011;9517;51.174;4.160;2023-02-01T03:43:09;36.40;;;5.50;;
18776;SDS011;9517;51.174;4.160;2023-02-01T03:45:44;32.57;;;5.60;;
18776;SDS011;9517;51.174;4.160;2023-02-01T03:48:16;28.33;;;4.80;;
18776;SDS011;9517;51.174;4.160;2023-02-01T03:50:46;37.50;;;5.53;;
18776;SDS011;9517;51.174;4.160;2023-02-01T03:53:19;34.03;;;5.30;;
18776;SDS011;9517;51.174;4.160;2023-02-01T03:55:49;46.77;;;7.03;;
18776;SDS011;9517;51.174;4.160;2023-02-01T03:58:18;26.60;;;5.03;;
18776;SDS011;9517;51.174;4.160;2023-02-01T04:00:50;34.60;;;5.73;;
18776;SDS011;9517;51.174;4.160;2023-02-01T04:03:18;29.60;;;5.43;;
18776;SDS011;9517;51.174;4.160;2023-02-01T04:05:46;33.23;;;5.53;;
18776;SDS011;9517;51.174;4.160;2023-02-01T04:08:19;33.93;;;6.23;;
18776;SDS011;9517;51.174;4.160;2023-02-01T04:10:46;37.37;;;6.60;;
18776;SDS011;9517;51.174;4.160;2023-02-01T04:13:14;31.47;;;6.27;;
18776;SDS011;9517;51.174;4.160;2023-02-01T04:15:41;25.97;;;6.63;;
18776;SDS011;9517;51.174;4.160;2023-02-01T04:18:09;37.20;;;5.67;;
18776;SDS011;9517;51.174;4.160;2023-02-01T04:20:36;27.53;;;5.00;;
18776;SDS011;9517;51.174;4.160;2023-02-01T04:23:04;34.87;;;5.80;;
18776;SDS011;9517;51.174;4.160;2023-02-01T04:25:32;30.93;;;5.70;;
18776;SDS011;9517;51.174;4.160;2023-02-01T04:27:59;25.90;;;5.23;;
18776;SDS011;9517;51.174;4.160;2023-02-01T04:30:26;30.30;;;5.80;;
18776;SDS011;9517;51.174;4.160;2023-02-01T04:32:54;27.23;;;5.23;;
18776;SDS011;9517;51.174;4.160;2023-02-01T04:35:21;32.93;;;5.73;;
18776;SDS011;9517;51.174;4.160;2023-02-01T04:37:48;29.40;;;4.93;;
18776;SDS011;9517;51.174;4.160;2023-02-01T04:40:15;33.17;;;5.53;;
18776;SDS011;9517;51.174;4.160;2023-02-01T04:42:44;33.20;;;6.83;;
18776;SDS011;9517;51.174;4.160;2023-02-01T04:45:11;35.13;;;6.10;;
18776;SDS011;9517;51.174;4.160;2023-02-01T04:47:38;30.83;;;5.50;;
18776;SDS011;9517;51.174;4.160;2023-02-01T04:50:06;41.40;;;7.07;;
18776;SDS011;9517;51.174;4.160;2023-02-01T04:52:35;28.90;;;5.97;;
18776;SDS011;9517;51.174;4.160;2023-02-01T04:55:03;31.67;;;4.77;;
18776;SDS011;9517;51.174;4.160;2023-02-01T04:57:31;33.13;;;5.10;;
18776;SDS011;9517;51.174;4.160;2023-02-01T04:59:59;34.17;;;5.17;;
18776;SDS011;9517;51.174;4.160;2023-02-01T05:02:26;40.67;;;5.73;;
18776;SDS011;9517;51.174;4.160;2023-02-01T05:04:54;32.27;;;4.80;;
18776;SDS011;9517;51.174;4.160;2023-02-01T05:07:21;30.93;;;6.03;;
18776;SDS011;9517;51.174;4.160;2023-02-01T05:09:48;34.00;;;6.07;;
18776;SDS011;9517;51.174;4.160;2023-02-01T05:12:16;34.10;;;6.37;;
18776;SDS011;9517;51.174;4.160;2023-02-01T06:54:32;33.10;;;5.87;;
18776;SDS011;9517;51.174;4.160;2023-02-01T06:57:04;34.63;;;5.47;;
18776;SDS011;9517;51.174;4.160;2023-02-01T07:00:00;32.53;;;6.67;;
18776;SDS011;9517;51.174;4.160;2023-02-01T07:02:50;36.40;;;6.10;;
18776;SDS011;9517;51.174;4.160;2023-02-01T07:12:07;30.83;;;5.80;;
18776;SDS011;9517;51.174;4.160;2023-02-01T07:14:37;31.23;;;5.77;;
18776;SDS011;9517;51.174;4.160;2023-02-01T07:17:07;26.90;;;4.70;;
18776;SDS011;9517;51.174;4.160;2023-02-01T07:19:35;33.67;;;5.53;;
18776;SDS011;9517;51.174;4.160;2023-02-01T07:22:04;30.37;;;5.67;;
18776;SDS011;9517;51.174;4.160;2023-02-01T07:24:31;24.83;;;5.50;;
18776;SDS011;9517;51.174;4.160;2023-02-01T07:27:13;34.43;;;5.47;;
18776;SDS011;9517;51.174;4.160;2023-02-01T07:29:43;38.03;;;5.47;;
18776;SDS011;9517;51.174;4.160;2023-02-01T07:32:15;33.07;;;5.70;;
18776;SDS011;9517;51.174;4.160;2023-02-01T07:34:52;31.40;;;5.60;;
18776;SDS011;9517;51.174;4.160;2023-02-01T07:37:23;37.13;;;6.93;;
18776;SDS011;9517;51.174;4.160;2023-02-01T07:39:52;32.60;;;7.17;;
18776;SDS011;9517;51.174;4.160;2023-02-01T07:42:21;28.23;;;5.37;;
18776;SDS011;9517;51.174;4.160;2023-02-01T07:44:57;35.30;;;5.40;;
18776;SDS011;9517;51.174;4.160;2023-02-01T07:47:26;27.17;;;6.23;;
18776;SDS011;9517;51.174;4.160;2023-02-01T07:49:56;34.70;;;6.07;;
18776;SDS011;9517;51.174;4.160;2023-02-01T07:52:27;30.17;;;5.33;;
18776;SDS011;9517;51.174;4.160;2023-02-01T07:54:55;32.73;;;5.73;;
18776;SDS011;9517;51.174;4.160;2023-02-01T07:57:24;26.73;;;4.90;;
18776;SDS011;9517;51.174;4.160;2023-02-01T07:59:51;30.93;;;5.07;;
18776;SDS011;9517;51.174;4.160;2023-02-01T08:02:36;28.80;;;4.93;;
18776;SDS011;9517;51.174;4.160;2023-02-01T08:05:09;27.10;;;5.60;;
18776;SDS011;9517;51.174;4.160;2023-02-01T08:07:46;26.13;;;5.50;;
18776;SDS011;9517;51.174;4.160;2023-02-01T08:10:31;30.60;;;6.43;;
18776;SDS011;9517;51.174;4.160;2023-02-01T08:13:10;32.73;;;6.43;;
18776;SDS011;9517;51.174;4.160;2023-02-01T08:15:38;32.80;;;6.43;;
18776;SDS011;9517;51.174;4.160;2023-02-01T08:18:09;37.33;;;6.57;;
18776;SDS011;9517;51.174;4.160;2023-02-01T08:20:39;35.63;;;6.77;;
18776;SDS011;9517;51.174;4.160;2023-02-01T08:23:31;29.40;;;5.07;;
18776;SDS011;9517;51.174;4.160;2023-02-01T08:26:08;35.70;;;6.17;;
18776;SDS011;9517;51.174;4.160;2023-02-01T08:31:50;30.00;;;5.53;;
18776;SDS011;9517;51.174;4.160;2023-02-01T08:34:22;30.27;;;5.90;;
18776;SDS011;9517;51.174;4.160;2023-02-01T08:37:04;38.57;;;6.63;;
18776;SDS011;9517;51.174;4.160;2023-02-01T08:39:32;34.23;;;7.23;;
18776;SDS011;9517;51.174;4.160;2023-02-01T08:42:06;31.83;;;6.07;;
18776;SDS011;9517;51.174;4.160;2023-02-01T08:44:58;31.07;;;6.63;;
18776;SDS011;9517;51.174;4.160;2023-02-01T08:47:33;30.13;;;5.63;;
18776;SDS011;9517;51.174;4.160;2023-02-01T08:50:04;30.60;;;6.50;;
18776;SDS011;9517;51.174;4.160;2023-02-01T08:52:33;42.40;;;7.53;;
18776;SDS011;9517;51.174;4.160;2023-02-01T08:55:01;34.97;;;5.87;;
18776;SDS011;9517;51.174;4.160;2023-02-01T09:34:49;23.67;;;5.77;;
18776;SDS011;9517;51.174;4.160;2023-02-01T09:58:25;33.43;;;5.53;;
18776;SDS011;9517;51.174;4.160;2023-02-01T10:01:26;28.70;;;4.67;;
18776;SDS011;9517;51.174;4.160;2023-02-01T10:10:15;26.73;;;4.60;;
18776;SDS011;9517;51.174;4.160;2023-02-01T10:15:54;25.70;;;3.47;;
18776;SDS011;9517;51.174;4.160;2023-02-01T10:18:51;26.37;;;3.83;;
18776;SDS011;9517;51.174;4.160;2023-02-01T10:21:44;21.87;;;4.30;;
18776;SDS011;9517;51.174;4.160;2023-02-01T10:24:24;19.93;;;3.37;;
18776;SDS011;9517;51.174;4.160;2023-02-01T11:08:35;11.37;;;2.10;;
18776;SDS011;9517;51.174;4.160;2023-02-01T11:11:12;18.77;;;3.13;;
18776;SDS011;9517;51.174;4.160;2023-02-01T11:13:40;25.80;;;3.17;;
18776;SDS011;9517;51.174;4.160;2023-02-01T11:16:12;17.60;;;2.60;;
18776;SDS011;9517;51.174;4.160;2023-02-01T11:18:43;16.40;;;2.53;;
18776;SDS011;9517;51.174;4.160;2023-02-01T11:21:21;21.87;;;2.90;;
18776;SDS011;9517;51.174;4.160;2023-02-01T11:24:04;17.50;;;2.87;;
18776;SDS011;9517;51.174;4.160;2023-02-01T11:27:16;13.53;;;2.70;;
18776;SDS011;9517;51.174;4.160;2023-02-01T11:30:14;16.47;;;2.60;;
18776;SDS011;9517;51.174;4.160;2023-02-01T11:32:46;20.60;;;2.50;;
18776;SDS011;9517;51.174;4.160;2023-02-01T11:35:33;21.57;;;2.73;;
18776;SDS011;9517;51.174;4.160;2023-02-01T11:38:51;17.83;;;3.00;;
18776;SDS011;9517;51.174;4.160;2023-02-01T11:45:40;15.90;;;2.57;;
18776;SDS011;9517;51.174;4.160;2023-02-01T11:48:15;19.07;;;3.10;;
18776;SDS011;9517;51.174;4.160;2023-02-01T11:50:57;18.10;;;3.00;;
18776;SDS011;9517;51.174;4.160;2023-02-01T11:54:10;21.67;;;4.00;;
18776;SDS011;9517;51.174;4.160;2023-02-01T13:44:08;10.57;;;1.70;;
18776;SDS011;9517;51.174;4.160;2023-02-01T13:46:44;14.40;;;2.57;;
18776;SDS011;9517;51.174;4.160;2023-02-01T13:49:44;15.93;;;2.10;;
18776;SDS011;9517;51.174;4.160;2023-02-01T13:52:28;14.77;;;1.93;;
18776;SDS011;9517;51.174;4.160;2023-02-01T13:55:30;19.73;;;2.67;;
18776;SDS011;9517;51.174;4.160;2023-02-01T13:58:01;16.83;;;2.77;;
18776;SDS011;9517;51.174;4.160;2023-02-01T14:00:50;13.07;;;2.27;;
18776;SDS011;9517;51.174;4.160;2023-02-01T14:03:50;14.57;;;2.47;;
18776;SDS011;9517;51.174;4.160;2023-02-01T14:09:32;15.87;;;2.63;;
18776;SDS011;9517;51.174;4.160;2023-02-01T14:17:57;14.73;;;2.33;;
18776;SDS011;9517;51.174;4.160;2023-02-01T14:23:28;20.60;;;3.83;;
18776;SDS011;9517;51.174;4.160;2023-02-01T14:26:08;20.03;;;2.83;;
18776;SDS011;9517;51.174;4.160;2023-02-01T14:28:42;11.83;;;2.57;;
18776;SDS011;9517;51.174;4.160;2023-02-01T14:34:34;21.03;;;3.80;;
18776;SDS011;9517;51.174;4.160;2023-02-01T14:37:23;16.57;;;2.90;;
18776;SDS011;9517;51.174;4.160;2023-02-01T14:39:56;18.93;;;3.67;;
18776;SDS011;9517;51.174;4.160;2023-02-01T14:42:28;23.43;;;3.20;;
18776;SDS011;9517;51.174;4.160;2023-02-01T14:51:09;16.03;;;3.30;;
18776;SDS011;9517;51.174;4.160;2023-02-01T14:57:08;19.80;;;3.70;;
18776;SDS011;9517;51.174;4.160;2023-02-01T14:59:41;21.60;;;3.50;;
18776;SDS011;9517;51.174;4.160;2023-02-01T15:02:23;14.33;;;2.77;;
18776;SDS011;9517;51.174;4.160;2023-02-01T15:08:25;22.47;;;3.80;;
18776;SDS011;9517;51.174;4.160;2023-02-01T15:31:33;25.57;;;4.97;;
18776;SDS011;9517;51.174;4.160;2023-02-01T15:34:18;30.03;;;5.03;;
18776;SDS011;9517;51.174;4.160;2023-02-01T15:37:36;27.10;;;4.07;;
18776;SDS011;9517;51.174;4.160;2023-02-01T15:44:19;25.57;;;4.97;;
18776;SDS011;9517;51.174;4.160;2023-02-01T15:46:58;27.80;;;4.93;;
18776;SDS011;9517;51.174;4.160;2023-02-01T15:49:36;25.90;;;4.00;;
18776;SDS011;9517;51.174;4.160;2023-02-01T15:52:12;29.07;;;4.60;;
18776;SDS011;9517;51.174;4.160;2023-02-01T15:54:50;21.07;;;4.67;;
18776;SDS011;9517;51.174;4.160;2023-02-01T16:03:42;28.83;;;5.57;;
18776;SDS011;9517;51.174;4.160;2023-02-01T16:06:28;21.83;;;4.43;;
18776;SDS011;9517;51.174;4.160;2023-02-01T16:09:40;22.67;;;4.60;;
18776;SDS011;9517;51.174;4.160;2023-02-01T16:12:23;25.33;;;5.47;;
18776;SDS011;9517;51.174;4.160;2023-02-01T16:15:14;25.80;;;5.10;;
18776;SDS011;9517;51.174;4.160;2023-02-01T16:20:52;26.03;;;4.20;;
18776;SDS011;9517;51.174;4.160;2023-02-01T16:23:24;22.97;;;3.90;;
18776;SDS011;9517;51.174;4.160;2023-02-01T16:29:20;27.80;;;4.63;;
18776;SDS011;9517;51.174;4.160;2023-02-01T16:35:29;26.83;;;5.30;;
18776;SDS011;9517;51.174;4.160;2023-02-01T16:38:00;25.77;;;4.27;;
18776;SDS011;9517;51.174;4.160;2023-02-01T16:40:33;29.60;;;4.83;;
18776;SDS011;9517;51.174;4.160;2023-02-01T16:46:00;22.33;;;4.03;;
18776;SDS011;9517;51.174;4.160;2023-02-01T16:48:29;19.23;;;4.40;;
18776;SDS011;9517;51.174;4.160;2023-02-01T17:26:13;25.50;;;5.23;;
18776;SDS011;9517;51.174;4.160;2023-02-01T17:29:02;30.97;;;5.60;;
18776;SDS011;9517;51.174;4.160;2023-02-01T17:31:44;30.67;;;4.80;;
18776;SDS011;9517;51.174;4.160;2023-02-01T19:26:17;29.10;;;5.67;;
18776;SDS011;9517;51.174;4.160;2023-02-01T19:28:56;27.63;;;5.63;;
18776;SDS011;9517;51.174;4.160;2023-02-01T19:35:03;30.70;;;5.40;;
18776;SDS011;9517;51.174;4.160;2023-02-01T19:37:50;29.73;;;5.93;;
18776;SDS011;9517;51.174;4.160;2023-02-01T19:47:00;32.50;;;5.03;;
18776;SDS011;9517;51.174;4.160;2023-02-01T19:49:30;26.30;;;5.27;;
18776;SDS011;9517;51.174;4.160;2023-02-01T19:51:58;31.80;;;6.17;;
18776;SDS011;9517;51.174;4.160;2023-02-01T20:23:15;31.90;;;7.17;;
18776;SDS011;9517;51.174;4.160;2023-02-01T20:29:26;36.77;;;6.43;;
18776;SDS011;9517;51.174;4.160;2023-02-01T20:32:15;33.33;;;6.13;;
18776;SDS011;9517;51.174;4.160;2023-02-01T20:35:35;31.43;;;6.10;;
18776;SDS011;9517;51.174;4.160;2023-02-01T20:42:21;32.93;;;6.13;;
18776;SDS011;9517;51.174;4.160;2023-02-01T20:50:09;28.23;;;6.50;;
18776;SDS011;9517;51.174;4.160;2023-02-01T20:52:37;27.77;;;6.67;;
18776;SDS011;9517;51.174;4.160;2023-02-01T20:55:04;31.83;;;5.67;;
18776;SDS011;9517;51.174;4.160;2023-02-01T20:57:33;28.87;;;6.00;;
18776;SDS011;9517;51.174;4.160;2023-02-01T21:00:01;32.53;;;6.63;;
18776;SDS011;9517;51.174;4.160;2023-02-01T21:02:32;25.03;;;5.93;;
18776;SDS011;9517;51.174;4.160;2023-02-01T21:04:59;28.67;;;5.90;;
18776;SDS011;9517;51.174;4.160;2023-02-01T21:07:26;30.13;;;5.57;;
18776;SDS011;9517;51.174;4.160;2023-02-01T21:09:56;31.47;;;6.23;;
18776;SDS011;9517;51.174;4.160;2023-02-01T21:12:25;26.40;;;6.10;;
18776;SDS011;9517;51.174;4.160;2023-02-01T21:14:54;31.03;;;6.73;;
18776;SDS011;9517;51.174;4.160;2023-02-01T21:17:21;30.33;;;6.33;;
18776;SDS011;9517;51.174;4.160;2023-02-01T21:19:52;35.60;;;6.60;;
18776;SDS011;9517;51.174;4.160;2023-02-01T21:22:19;29.60;;;6.57;;
18776;SDS011;9517;51.174;4.160;2023-02-01T21:24:47;32.07;;;6.53;;
18776;SDS011;9517;51.174;4.160;2023-02-01T21:27:14;32.07;;;6.50;;
18776;SDS011;9517;51.174;4.160;2023-02-01T21:29:41;30.60;;;5.93;;
18776;SDS011;9517;51.174;4.160;2023-02-01T21:32:10;24.50;;;5.97;;
18776;SDS011;9517;51.174;4.160;2023-02-01T21:34:38;19.67;;;5.73;;
18776;SDS011;9517;51.174;4.160;2023-02-01T21:37:05;30.60;;;5.57;;
18776;SDS011;9517;51.174;4.160;2023-02-01T21:39:32;22.00;;;5.47;;
18776;SDS011;9517;51.174;4.160;2023-02-01T21:41:59;25.77;;;5.67;;
18776;SDS011;9517;51.174;4.160;2023-02-01T21:44:43;33.97;;;5.83;;
18776;SDS011;9517;51.174;4.160;2023-02-01T21:47:13;18.93;;;4.23;;
18776;SDS011;9517;51.174;4.160;2023-02-01T21:49:41;22.63;;;4.87;;
18776;SDS011;9517;51.174;4.160;2023-02-01T21:52:09;24.37;;;4.03;;
18776;SDS011;9517;51.174;4.160;2023-02-01T21:54:36;22.27;;;3.13;;
18776;SDS011;9517;51.174;4.160;2023-02-01T21:57:04;19.37;;;3.47;;
18776;SDS011;9517;51.174;4.160;2023-02-01T21:59:32;21.77;;;4.10;;
18776;SDS011;9517;51.174;4.160;2023-02-01T22:02:00;19.40;;;3.40;;
18776;SDS011;9517;51.174;4.160;2023-02-01T22:04:30;20.30;;;3.20;;
18776;SDS011;9517;51.174;4.160;2023-02-01T22:06:57;19.03;;;3.53;;
18776;SDS011;9517;51.174;4.160;2023-02-01T22:09:25;23.80;;;3.97;;
18776;SDS011;9517;51.174;4.160;2023-02-01T22:11:52;21.87;;;3.90;;
18776;SDS011;9517;51.174;4.160;2023-02-01T22:14:21;23.00;;;3.80;;
18776;SDS011;9517;51.174;4.160;2023-02-01T22:16:49;18.40;;;3.57;;
18776;SDS011;9517;51.174;4.160;2023-02-01T22:19:16;19.13;;;2.97;;
18776;SDS011;9517;51.174;4.160;2023-02-01T22:21:45;17.87;;;2.73;;
18776;SDS011;9517;51.174;4.160;2023-02-01T22:24:14;18.70;;;3.37;;
18776;SDS011;9517;51.174;4.160;2023-02-01T22:26:44;22.60;;;4.20;;
18776;SDS011;9517;51.174;4.160;2023-02-01T22:29:11;21.87;;;3.93;;
18776;SDS011;9517;51.174;4.160;2023-02-01T22:31:39;24.33;;;3.70;;
18776;SDS011;9517;51.174;4.160;2023-02-01T22:34:12;18.10;;;2.87;;
18776;SDS011;9517;51.174;4.160;2023-02-01T22:36:51;23.43;;;3.43;;
18776;SDS011;9517;51.174;4.160;2023-02-01T22:39:21;20.30;;;3.17;;
18776;SDS011;9517;51.174;4.160;2023-02-01T22:41:49;26.30;;;3.77;;
18776;SDS011;9517;51.174;4.160;2023-02-01T22:44:16;16.80;;;3.17;;
18776;SDS011;9517;51.174;4.160;2023-02-01T22:46:43;19.40;;;3.43;;
18776;SDS011;9517;51.174;4.160;2023-02-01T22:49:10;17.20;;;2.90;;
18776;SDS011;9517;51.174;4.160;2023-02-01T22:51:38;16.30;;;2.93;;
18776;SDS011;9517;51.174;4.160;2023-02-01T22:54:06;24.07;;;3.53;;
18776;SDS011;9517;51.174;4.160;2023-02-01T22:56:38;19.03;;;4.17;;
18776;SDS011;9517;51.174;4.160;2023-02-01T22:59:08;18.53;;;3.20;;
18776;SDS011;9517;51.174;4.160;2023-02-01T23:01:37;13.90;;;2.37;;
18776;SDS011;9517;51.174;4.160;2023-02-01T23:04:05;20.80;;;3.60;;
18776;SDS011;9517;51.174;4.160;2023-02-01T23:06:33;21.27;;;3.37;;
18776;SDS011;9517;51.174;4.160;2023-02-01T23:09:01;23.23;;;3.47;;
18776;SDS011;9517;51.174;4.160;2023-02-01T23:11:31;24.87;;;3.53;;
18776;SDS011;9517;51.174;4.160;2023-02-01T23:13:58;19.03;;;2.50;;
18776;SDS011;9517;51.174;4.160;2023-02-01T23:16:26;17.17;;;3.10;;
18776;SDS011;9517;51.174;4.160;2023-02-01T23:18:53;25.17;;;3.23;;
18776;SDS011;9517;51.174;4.160;2023-02-01T23:21:21;21.47;;;3.97;;
18776;SDS011;9517;51.174;4.160;2023-02-01T23:23:49;17.17;;;3.27;;
18776;SDS011;9517;51.174;4.160;2023-02-01T23:26:18;22.20;;;4.10;;
18776;SDS011;9517;51.174;4.160;2023-02-01T23:28:47;19.90;;;3.40;;
18776;SDS011;9517;51.174;4.160;2023-02-01T23:31:16;21.30;;;3.87;;
18776;SDS011;9517;51.174;4.160;2023-02-01T23:33:43;17.70;;;3.20;;
18776;SDS011;9517;51.174;4.160;2023-02-01T23:36:13;25.20;;;3.37;;
18776;SDS011;9517;51.174;4.160;2023-02-01T23:38:42;19.10;;;4.33;;
18776;SDS011;9517;51.174;4.160;2023-02-01T23:41:10;13.50;;;2.63;;
18776;SDS011;9517;51.174;4.160;2023-02-01T23:43:38;16.67;;;2.97;;
18776;SDS011;9517;51.174;4.160;2023-02-01T23:46:30;22.13;;;4.17;;
18776;SDS011;9517;51.174;4.160;2023-02-01T23:48:58;21.63;;;3.53;;
18776;SDS011;9517;51.174;4.160;2023-02-01T23:51:26;17.87;;;3.10;;
18776;SDS011;9517;51.174;4.160;2023-02-01T23:53:54;24.50;;;4.10;;
18776;SDS011;9517;51.174;4.160;2023-02-01T23:56:23;32.47;;;5.27;;
18776;SDS011;9517;51.174;4.160;2023-02-01T23:58:52;25.23;;;3.90;;
